松山國際航空站 - 塔臺

METAR RCSS 051000Z 08006KT 9999 FEW030 SCT200 32/26 Q1005 NOSIG RMK A2969=

站台狀態:Offline
最後更新:2020-07-05 18:30:02